SBMO/MCZ METAR and TAF weather

Enter ICAO airport designator
Station Type Date Time Source
SBMO METAR 2019/10/23 20:00 UTC NOAA

SBMO 232000Z 07012KT CAVOK 27/21 Q1011


Station Type Date Time Source
SBMO Decoded METAR 2019/10/23 20:00 UTC NOAA

Maceio Aeroporto , Brazil (SBMO) 09-31S 035-47W 115M
Oct 23, 2019 - 04:00 PM EDT / 2019.10.23 2000 UTC
Wind: from the ENE (070 degrees) at 14 MPH (12 KT):0
Visibility: greater than 7 mile(s):0
Temperature: 80 F (27 C)
Dew Point: 69 F (21 C)
Relative Humidity: 69%
Pressure (altimeter): 29.85 in. Hg (1011 hPa)
ob: SBMO 232000Z 07012KT CAVOK 27/21 Q1011
cycle: 20

Station Type Date Time Source
SBMO TAF 2019/10/23 18:36 UTC NOAA

TAF SBMO 231600Z 2318/2418 06010KT 9999 SCT030 TN22/2403Z TX30/2415Z
BECMG 2322/2324 02005KT CAVOK
BECMG 2411/2413 06008KT SCT030
RMK PEH

Example: see airport list